Terminal Aerodrome Forecast
Issued by NWS Wilmington, OH

Current Version | Previous Version | Text Only | Print | Product List | Glossary Off
Versions: 1 2 3 4 5 6 7 8 9 10 11 12 13 14 15 16 17 18 19 20 21

000
FTUS41 KILN 231427 AAB
TAFDAY
TAF AMD
KDAY 231427Z 2314/2412 25010KT P6SM VCTS SCT015 OVC035CB
      TEMPO 2315/2319 2SM +TSRA BR OVC015CB
     FM232100 27005KT P6SM VCTS BKN035CB
     FM232200 29007KT P6SM VCSH BKN035
     FM240200 26004KT P6SM SCT035=

USA.gov is the U.S. government's official web portal to all federal, state and local government web resources and services.